Time;durP1;ratioP1;P1;durP2;ratioP2;P2;SDS_P1;SDS_P2;PMS_P1;PMS_P2;Temp;Humidity;BMP_temperature;BMP_pressure;BME280_temperature;BME280_humidity;BME280_pressure;Samples;Min_cycle;Max_cycle;Signal;HPM_P1;HPM_P2
2021/01/10 00:01:38;;;;;;;53.03;30.38;;;;;;;2.41;66.48;100541.88;5043373;28;20045;-72
2021/01/10 00:04:05;;;;;;;44.47;27.27;;;;;;;2.39;66.45;100543.66;5042798;28;20045;-71
2021/01/10 00:06:31;;;;;;;48.00;29.63;;;;;;;2.40;66.33;100534.94;5042967;28;20040;-72
2021/01/10 00:08:57;;;;;;;47.53;27.92;;;;;;;2.56;66.28;100539.63;5044391;28;20053;-73
2021/01/10 00:11:24;;;;;;;44.00;26.65;;;;;;;2.51;66.29;100539.78;5041407;28;20068;-71
2021/01/10 00:13:50;;;;;;;48.85;35.72;;;;;;;2.55;66.17;100538.75;5043235;28;20107;-71
2021/01/10 00:16:17;;;;;;;58.25;38.50;;;;;;;2.44;66.56;100543.50;5043614;28;20045;-71
2021/01/10 00:18:44;;;;;;;47.05;32.60;;;;;;;2.37;66.73;100542.00;5042671;28;20056;-71
2021/01/10 00:21:10;;;;;;;55.55;35.65;;;;;;;2.30;66.88;100549.19;5044634;28;20048;-71
2021/01/10 00:23:37;;;;;;;56.75;35.70;;;;;;;2.33;66.76;100546.47;5045772;28;20088;-72
2021/01/10 00:26:03;;;;;;;62.65;39.47;;;;;;;2.31;67.19;100556.09;5043659;28;20132;-71
2021/01/10 00:28:31;;;;;;;49.53;28.65;;;;;;;2.36;67.24;100555.94;5007304;28;20049;-70
2021/01/10 00:30:57;;;;;;;57.13;35.25;;;;;;;2.38;67.35;100557.59;5044685;28;20107;-71
2021/01/10 00:33:25;;;;;;;52.90;26.10;;;;;;;2.44;67.09;100562.59;5041504;28;20047;-71
2021/01/10 00:35:51;;;;;;;46.85;28.73;;;;;;;2.53;66.80;100560.59;5042309;28;20048;-72
2021/01/10 00:38:17;;;;;;;44.75;28.23;;;;;;;2.51;67.04;100565.00;5042576;28;20075;-71
2021/01/10 00:40:44;;;;;;;54.83;28.70;;;;;;;2.42;67.15;100577.44;5041281;28;20048;-71
2021/01/10 00:43:10;;;;;;;59.45;38.88;;;;;;;2.39;67.26;100556.69;5043473;28;20052;-71
2021/01/10 00:45:37;;;;;;;52.00;28.38;;;;;;;2.44;67.29;100566.97;5043913;28;20122;-72
2021/01/10 00:48:04;;;;;;;56.10;29.98;;;;;;;2.44;67.15;100565.22;5042931;28;20102;-72
2021/01/10 00:50:31;;;;;;;56.13;28.88;;;;;;;2.45;67.12;100568.69;5043006;28;20049;-72
2021/01/10 00:52:57;;;;;;;56.10;34.30;;;;;;;2.40;67.29;100565.38;5042624;28;20057;-71
2021/01/10 00:55:24;;;;;;;49.92;25.38;;;;;;;2.47;67.19;100578.16;5042888;28;20064;-72
2021/01/10 00:57:50;;;;;;;44.60;23.70;;;;;;;2.52;67.04;100572.78;5043057;28;20041;-71
2021/01/10 01:00:18;;;;;;;59.58;29.65;;;;;;;2.59;67.07;100582.09;5043168;28;20045;-72
2021/01/10 01:02:47;;;;;;;55.17;31.77;;;;;;;2.54;67.23;100578.81;5042391;28;20054;-72
2021/01/10 01:05:14;;;;;;;51.38;29.40;;;;;;;2.46;67.48;100575.59;5044325;28;20045;-71
2021/01/10 01:07:41;;;;;;;58.63;36.15;;;;;;;2.47;67.50;100572.94;5043043;28;20045;-71
2021/01/10 01:10:09;;;;;;;54.92;35.25;;;;;;;2.41;67.60;100580.09;5041057;28;20060;-72
2021/01/10 01:12:35;;;;;;;65.32;38.70;;;;;;;2.45;67.70;100582.56;5043502;28;20068;-73
2021/01/10 01:15:01;;;;;;;42.45;23.65;;;;;;;2.46;67.61;100584.25;5042837;28;20416;-71
2021/01/10 01:17:28;;;;;;;53.85;29.58;;;;;;;2.52;67.45;100582.34;5043883;28;20041;-71
2021/01/10 01:19:54;;;;;;;56.75;29.83;;;;;;;2.48;67.57;100589.41;5044026;28;20045;-71
2021/01/10 01:22:20;;;;;;;60.28;33.63;;;;;;;2.39;68.05;100584.50;5043043;28;20485;-71
2021/01/10 01:24:48;;;;;;;64.50;36.72;;;;;;;2.35;68.10;100590.75;5042228;28;20557;-73
2021/01/10 01:27:14;;;;;;;54.72;29.00;;;;;;;2.43;67.88;100588.72;5043909;28;20277;-70
2021/01/10 01:29:40;;;;;;;45.97;25.15;;;;;;;2.52;67.91;100592.78;5044308;28;20163;-71
2021/01/10 01:32:07;;;;;;;64.03;36.67;;;;;;;2.40;68.27;100592.28;5043973;28;20045;-72
2021/01/10 01:34:33;;;;;;;71.97;42.92;;;;;;;2.30;68.40;100590.88;5044408;28;20052;-71
2021/01/10 01:37:00;;;;;;;65.78;35.85;;;;;;;2.22;68.84;100596.34;5044059;28;20041;-71
2021/01/10 01:39:26;;;;;;;56.92;35.20;;;;;;;2.22;68.91;100595.50;5044003;28;20049;-71
2021/01/10 01:41:54;;;;;;;57.67;33.42;;;;;;;2.31;68.72;100600.41;5041977;28;20045;-71
2021/01/10 01:44:21;;;;;;;56.00;31.42;;;;;;;2.32;68.60;100603.88;5043867;28;20049;-70
2021/01/10 01:46:48;;;;;;;72.82;41.25;;;;;;;2.23;69.09;100597.19;5047379;28;20045;-72
2021/01/10 01:49:15;;;;;;;58.30;30.00;;;;;;;2.28;68.75;100597.91;5047411;28;20049;-71
2021/01/10 01:51:42;;;;;;;65.93;41.42;;;;;;;2.17;69.10;100595.66;5046477;28;20090;-72
2021/01/10 01:54:11;;;;;;;66.13;38.83;;;;;;;2.13;69.39;100601.88;5046724;28;20053;-76
2021/01/10 01:56:37;;;;;;;63.55;37.28;;;;;;;2.14;69.33;100605.31;5046447;28;20480;-71
2021/01/10 01:59:07;;;;;;;76.22;34.90;;;;;;;2.14;69.38;100600.94;5046766;28;20056;-72
2021/01/10 02:01:34;;;;;;;59.22;34.95;;;;;;;2.21;69.07;100606.81;5047418;28;20581;-72
2021/01/10 02:04:10;;;;;;;56.08;28.20;;;;;;;2.21;69.37;100601.59;5047371;28;20049;-71
2021/01/10 02:06:41;;;;;;;;;;;;;;;2.37;69.02;100597.59;5047749;28;20115;-71
2021/01/10 02:09:10;;;;;;;61.85;29.55;;;;;;;2.26;69.01;100602.31;5047680;28;19921;-73
2021/01/10 02:11:39;;;;;;;58.42;30.45;;;;;;;2.15;69.57;100607.88;5046681;28;20051;-71
2021/01/10 02:14:13;;;;;;;55.55;29.35;;;;;;;2.13;69.75;100608.84;5047115;28;20428;-71
2021/01/10 02:16:40;;;;;;;61.55;36.35;;;;;;;2.08;69.70;100609.81;5030776;28;20070;-72
2021/01/10 02:19:13;;;;;;;58.08;28.17;;;;;;;2.16;69.73;100608.72;5048358;28;20053;-71
2021/01/10 02:21:44;;;;;;;45.95;21.00;;;;;;;2.26;69.34;100610.13;5047893;28;20072;-71
2021/01/10 02:24:12;;;;;;;56.70;28.45;;;;;;;2.25;69.53;100604.06;5047458;28;20072;-71
2021/01/10 02:26:40;;;;;;;65.38;37.35;;;;;;;2.24;69.53;100612.78;5047380;28;20103;-72
2021/01/10 02:29:06;;;;;;;64.78;38.58;;;;;;;2.18;69.63;100604.31;5046733;28;20049;-71
2021/01/10 02:31:38;;;;;;;43.80;21.55;;;;;;;2.27;69.21;100609.25;5047448;28;20124;-72
2021/01/10 02:34:06;;;;;;;47.95;25.83;;;;;;;2.28;69.11;100613.53;5046445;28;20060;-71
2021/01/10 02:36:51;;;;;;;54.28;32.63;;;;;;;2.26;69.03;100608.38;5046414;28;20465;-71
2021/01/10 02:39:26;;;;;;;47.07;22.60;;;;;;;2.32;69.15;100609.91;5046434;28;20596;-71
2021/01/10 02:41:59;;;;;;;55.83;28.50;;;;;;;2.34;68.93;100607.28;5045259;28;20075;-71
2021/01/10 02:44:30;;;;;;;49.83;29.08;;;;;;;2.32;68.73;100611.69;5047426;28;20053;-70
2021/01/10 02:46:57;;;;;;;44.42;23.00;;;;;;;2.37;68.69;100608.03;5046979;28;20497;-70
2021/01/10 02:49:24;;;;;;;52.05;32.75;;;;;;;2.41;68.55;100608.78;5046278;28;20049;-72
2021/01/10 02:51:50;;;;;;;46.95;27.55;;;;;;;2.34;68.55;100610.75;5046580;28;20415;-72
2021/01/10 02:54:19;;;;;;;54.35;30.17;;;;;;;2.35;68.57;100611.59;5046131;28;20707;-72
2021/01/10 02:56:51;;;;;;;49.33;26.80;;;;;;;2.37;68.50;100618.44;5046402;28;20296;-73
2021/01/10 02:59:22;;;;;;;44.40;23.25;;;;;;;2.38;68.37;100609.75;5047221;28;20048;-72
2021/01/10 03:01:50;;;;;;;43.30;19.52;;;;;;;2.41;68.36;100612.25;5046802;28;20045;-70
2021/01/10 03:04:17;;;;;;;47.25;27.63;;;;;;;2.43;67.97;100612.19;5046888;28;20049;-73
2021/01/10 03:06:45;;;;;;;39.22;23.63;;;;;;;2.42;68.23;100616.53;5046615;28;20131;-71
2021/01/10 03:09:12;;;;;;;43.42;23.60;;;;;;;2.44;68.08;100619.94;5046623;28;20041;-70
2021/01/10 03:11:40;;;;;;;42.17;25.52;;;;;;;2.39;67.80;100608.81;5045191;28;20060;-70
2021/01/10 03:14:07;;;;;;;34.40;18.60;;;;;;;2.48;67.95;100611.16;5046496;28;20264;-70
2021/01/10 03:16:36;;;;;;;44.75;26.35;;;;;;;2.44;67.83;100608.69;5046554;28;20056;-72
2021/01/10 03:19:02;;;;;;;42.67;27.40;;;;;;;2.30;67.89;100611.72;5045724;28;20064;-72
2021/01/10 03:21:29;;;;;;;41.08;23.77;;;;;;;2.31;67.92;100608.25;5046957;28;20319;-70
2021/01/10 03:23:55;;;;;;;41.67;24.92;;;;;;;2.36;67.99;100602.84;5046888;28;20079;-71
2021/01/10 03:26:22;;;;;;;41.25;25.27;;;;;;;2.41;67.77;100614.88;5046676;28;20052;-70
2021/01/10 03:28:49;;;;;;;46.22;26.17;;;;;;;2.37;67.73;100607.19;5047328;28;20053;-71
2021/01/10 03:31:16;;;;;;;45.50;27.70;;;;;;;2.31;67.54;100610.84;5047367;28;20064;-70
2021/01/10 03:33:46;;;;;;;49.22;29.63;;;;;;;2.30;67.71;100614.34;5046450;28;20064;-69
2021/01/10 03:36:12;;;;;;;50.17;29.23;;;;;;;2.25;67.89;100606.69;5045731;28;20071;-69
2021/01/10 03:38:39;;;;;;;44.97;26.20;;;;;;;2.29;67.79;100610.03;5045745;28;20102;-70
2021/01/10 03:41:05;;;;;;;35.40;23.33;;;;;;;2.29;67.92;100604.84;5044321;28;20456;-69
2021/01/10 03:43:32;;;;;;;43.70;23.65;;;;;;;2.35;67.79;100603.78;5045633;28;20060;-70
2021/01/10 03:45:59;;;;;;;43.72;24.80;;;;;;;2.40;67.53;100607.09;5045901;28;20071;-71
2021/01/10 03:48:25;;;;;;;39.92;23.85;;;;;;;2.43;67.63;100607.84;5046424;28;20056;-69
2021/01/10 03:50:52;;;;;;;46.63;28.17;;;;;;;2.44;67.31;100603.47;5045784;28;20049;-70
2021/01/10 03:53:19;;;;;;;47.65;26.02;;;;;;;2.44;67.36;100604.31;5045867;28;20730;-70
2021/01/10 03:55:45;;;;;;;53.95;30.83;;;;;;;2.41;67.54;100600.94;5044093;28;20199;-71
2021/01/10 03:58:12;;;;;;;47.33;29.45;;;;;;;2.31;67.68;100604.78;5044959;28;20037;-70
2021/01/10 04:00:38;;;;;;;49.95;30.00;;;;;;;2.28;67.72;100603.13;5045374;28;20044;-69
2021/01/10 04:03:06;;;;;;;44.63;29.83;;;;;;;2.29;67.73;100604.84;5045615;28;20598;-71
2021/01/10 04:05:32;;;;;;;46.72;25.35;;;;;;;2.33;67.64;100605.59;5046000;28;20049;-73
2021/01/10 04:07:58;;;;;;;50.78;27.58;;;;;;;2.31;67.62;100607.41;5044870;28;20052;-71
2021/01/10 04:10:25;;;;;;;50.75;30.38;;;;;;;2.34;67.47;100602.06;5044661;28;20079;-70
2021/01/10 04:12:52;;;;;;;46.20;27.23;;;;;;;2.29;67.65;100605.69;5045275;28;20041;-71
2021/01/10 04:15:18;;;;;;;55.90;31.45;;;;;;;2.31;67.87;100610.84;5046214;28;20049;-71
2021/01/10 04:17:44;;;;;;;55.78;33.63;;;;;;;2.34;67.54;100602.06;5045595;28;20044;-71
2021/01/10 04:20:13;;;;;;;53.13;34.10;;;;;;;2.25;67.80;100609.28;5045624;28;20037;-71
2021/01/10 04:22:39;;;;;;;50.50;28.27;;;;;;;2.27;67.84;100617.06;5043197;28;20049;-71
2021/01/10 04:25:06;;;;;;;48.28;29.60;;;;;;;2.24;67.91;100618.00;5045546;28;20053;-70
2021/01/10 04:27:32;;;;;;;55.03;31.90;;;;;;;2.23;67.74;100625.84;5046201;28;20044;-71
2021/01/10 04:30:03;;;;;;;53.83;29.50;;;;;;;2.24;67.81;100617.16;5045527;28;20052;-70
2021/01/10 04:32:29;;;;;;;47.92;27.75;;;;;;;2.24;67.91;100624.97;5046662;28;20132;-70
2021/01/10 04:34:55;;;;;;;47.90;22.88;;;;;;;2.26;67.99;100620.56;5044362;28;20053;-72
2021/01/10 04:37:23;;;;;;;43.45;23.65;;;;;;;2.36;67.66;100626.31;5045568;28;20049;-72
2021/01/10 04:39:49;;;;;;;47.50;28.55;;;;;;;2.39;67.59;100624.47;5044904;28;20485;-72
2021/01/10 04:42:17;;;;;;;47.83;19.58;;;;;;;2.48;67.66;100632.00;5046488;28;20152;-72
2021/01/10 04:44:43;;;;;;;45.08;25.45;;;;;;;2.51;67.51;100624.97;5045795;28;20041;-72
2021/01/10 04:47:09;;;;;;;42.83;28.83;;;;;;;2.49;67.45;100628.47;5045550;28;20125;-72
2021/01/10 04:49:37;;;;;;;40.55;22.27;;;;;;;2.44;67.49;100627.78;5045669;28;20051;-72
2021/01/10 04:52:07;;;;;;;46.15;28.77;;;;;;;2.36;67.31;100634.13;5046505;28;20046;-72
2021/01/10 04:54:40;;;;;;;44.53;24.83;;;;;;;2.34;67.48;100634.22;5046066;28;20577;-70
2021/01/10 04:57:11;;;;;;;45.55;26.50;;;;;;;2.38;67.34;100633.19;5045956;28;20469;-71
2021/01/10 04:59:38;;;;;;;47.80;27.67;;;;;;;2.38;67.20;100638.41;5046383;28;20063;-71
2021/01/10 05:02:08;;;;;;;47.03;26.42;;;;;;;2.42;67.35;100642.63;5045428;28;20060;-71
2021/01/10 05:04:35;;;;;;;46.22;25.15;;;;;;;2.44;67.39;100642.56;5027812;28;20067;-71
2021/01/10 05:07:02;;;;;;;51.33;28.75;;;;;;;2.37;67.35;100641.91;5045762;28;20187;-70
2021/01/10 05:09:28;;;;;;;44.13;27.60;;;;;;;2.38;67.64;100641.03;5045083;28;20056;-70
2021/01/10 05:11:56;;;;;;;44.50;26.30;;;;;;;2.35;67.66;100641.13;5042507;28;20489;-70
2021/01/10 05:14:22;;;;;;;39.25;20.33;;;;;;;2.39;67.40;100645.31;5045307;28;20592;-71
2021/01/10 05:16:49;;;;;;;40.78;21.40;;;;;;;2.47;67.51;100643.31;5044587;28;20629;-70
2021/01/10 05:19:20;;;;;;;49.88;31.73;;;;;;;2.46;67.43;100645.97;5046659;28;20052;-70
2021/01/10 05:21:46;;;;;;;51.95;26.17;;;;;;;2.39;67.45;100639.25;5049007;28;20569;-71
2021/01/10 05:24:17;;;;;;;47.85;26.17;;;;;;;2.37;67.55;100636.69;5047606;28;20111;-72
2021/01/10 05:26:44;;;;;;;39.90;21.42;;;;;;;2.43;67.42;100638.25;5047595;28;20168;-70
2021/01/10 05:29:12;;;;;;;46.42;26.02;;;;;;;2.45;67.40;100647.75;5049246;28;20071;-71
2021/01/10 05:31:41;;;;;;;53.67;25.52;;;;;;;2.46;67.10;100643.38;5049096;28;20095;-71
2021/01/10 05:34:08;;;;;;;45.25;22.20;;;;;;;2.40;67.59;100644.44;5047890;28;20508;-71
2021/01/10 05:36:36;;;;;;;45.38;25.05;;;;;;;2.44;67.28;100653.84;5049297;28;20055;-72
2021/01/10 05:39:21;;;;;;;47.83;25.98;;;;;;;2.47;67.36;100655.53;5048152;28;20045;-71
2021/01/10 05:41:53;;;;;;;48.42;27.75;;;;;;;2.44;67.30;100648.63;5047719;28;20305;-70
2021/01/10 05:44:21;;;;;;;50.58;25.45;;;;;;;2.40;67.54;100664.44;5049330;28;20075;-71
2021/01/10 05:46:49;;;;;;;48.13;25.50;;;;;;;2.41;67.57;100656.56;5048603;28;20056;-70
2021/01/10 05:49:20;;;;;;;48.78;30.23;;;;;;;2.35;67.69;100666.34;5030826;28;20052;-70
2021/01/10 05:51:47;;;;;;;49.22;23.98;;;;;;;2.34;67.49;100669.84;5047506;28;20045;-70
2021/01/10 05:54:35;;;;;;;45.78;24.02;;;;;;;2.42;67.55;100668.69;5049052;28;20049;-70
2021/01/10 05:57:03;;;;;;;35.70;19.10;;;;;;;2.53;67.26;100675.31;5050110;28;20052;-71
2021/01/10 05:59:35;;;;;;;40.28;22.75;;;;;;;2.60;67.17;100677.66;5048898;28;20258;-71
2021/01/10 06:02:03;;;;;;;48.85;27.27;;;;;;;2.53;67.26;100670.94;5048924;28;20076;-70
2021/01/10 06:04:30;;;;;;;53.03;24.63;;;;;;;2.47;67.26;100682.44;5048941;28;20056;-70
2021/01/10 06:06:57;;;;;;;41.88;21.67;;;;;;;2.54;67.13;100684.84;5048244;28;20045;-71
2021/01/10 06:09:24;;;;;;;49.35;26.77;;;;;;;2.54;67.21;100682.22;5048794;28;20045;-70
2021/01/10 06:11:50;;;;;;;57.78;31.35;;;;;;;2.49;67.29;100683.22;5047840;28;20048;-70
2021/01/10 06:14:22;;;;;;;41.47;20.75;;;;;;;2.52;67.23;100689.25;5047789;28;20049;-71
2021/01/10 06:16:55;;;;;;;38.22;18.27;;;;;;;2.58;67.16;100686.47;5048298;28;20053;-72
2021/01/10 06:19:27;;;;;;;44.78;23.30;;;;;;;2.61;67.11;100679.38;5049159;28;20057;-71
2021/01/10 06:21:56;;;;;;;46.72;26.40;;;;;;;2.65;67.19;100686.19;5048789;28;20056;-72
2021/01/10 06:24:25;;;;;;;49.22;26.10;;;;;;;2.65;66.95;100685.34;5051823;28;20053;-71
2021/01/10 06:27:03;;;;;;;60.72;35.10;;;;;;;2.51;67.44;100684.94;5048524;28;20049;-70
2021/01/10 06:29:38;;;;;;;59.25;33.13;;;;;;;2.49;67.09;100687.59;5049458;28;20397;-71
2021/01/10 06:32:10;;;;;;;49.70;29.23;;;;;;;2.47;67.14;100682.44;5049388;28;20172;-69
2021/01/10 06:34:41;;;;;;;58.97;33.88;;;;;;;2.45;67.50;100689.47;5049542;28;20055;-70
2021/01/10 06:37:09;;;;;;;51.47;27.63;;;;;;;2.46;67.43;100700.72;5048819;28;20053;-70
2021/01/10 06:39:40;;;;;;;49.38;23.75;;;;;;;2.54;67.18;100697.88;5049482;28;20055;-70
2021/01/10 06:42:09;;;;;;;51.97;26.92;;;;;;;2.60;67.03;100703.75;5047382;28;20045;-71
2021/01/10 06:44:39;;;;;;;54.65;30.67;;;;;;;2.53;67.28;100702.25;5050176;28;20037;-71
2021/01/10 06:47:07;;;;;;;45.83;20.70;;;;;;;2.56;67.09;100717.81;5063533;28;20052;-71
2021/01/10 06:49:35;;;;;;;58.17;30.38;;;;;;;2.59;67.07;100709.00;5063437;28;20053;-72
2021/01/10 06:52:05;;;;;;;52.88;24.08;;;;;;;2.63;67.28;100719.31;5065613;28;20059;-71
2021/01/10 06:54:41;;;;;;;55.40;25.50;;;;;;;2.67;67.34;100720.06;5065361;28;20068;-72
2021/01/10 06:57:08;;;;;;;56.83;27.67;;;;;;;2.68;66.91;100713.94;5065345;28;20048;-71
2021/01/10 06:59:56;;;;;;;66.55;31.25;;;;;;;2.64;67.27;100710.56;5064758;28;20051;-71
2021/01/10 07:02:23;;;;;;;74.00;39.08;;;;;;;2.61;66.90;100717.63;5067319;28;20041;-71
2021/01/10 07:05:00;;;;;;;56.38;24.60;;;;;;;2.65;67.19;100719.25;5067012;28;20029;-71
2021/01/10 07:07:42;;;;;;;55.25;25.20;;;;;;;2.77;67.24;100723.22;5068125;28;20105;-72
2021/01/10 07:10:12;;;;;;;59.58;29.80;;;;;;;2.73;66.97;100725.06;5050898;28;20079;-71
2021/01/10 07:12:39;;;;;;;56.38;28.25;;;;;;;2.76;66.91;100724.97;5068481;28;20382;-72
2021/01/10 07:15:30;;;;;;;56.55;26.45;;;;;;;2.82;67.05;100723.91;5069453;28;20053;-71
2021/01/10 07:18:10;;;;;;;67.40;32.35;;;;;;;2.85;66.97;100727.28;5051967;28;20061;-72
2021/01/10 07:20:46;;;;;;;57.17;25.70;;;;;;;2.82;67.00;100732.59;5056574;28;20071;-76
2021/01/10 07:23:30;;;;;;;;;;;;;;;3.01;66.50;100732.00;5050485;28;20152;-67
2021/01/10 07:25:58;;;;;;;70.20;36.85;;;;;;;2.87;66.60;100730.69;5050048;28;20030;-71
2021/01/10 07:28:42;;;;;;;63.72;33.83;;;;;;;2.69;67.20;100736.50;5059463;28;20496;-74
2021/01/10 07:31:18;;;;;;;52.97;23.08;;;;;;;2.74;67.11;100739.81;5052331;28;20065;-73
2021/01/10 07:34:08;;;;;;;54.30;26.02;;;;;;;2.84;66.76;100746.44;5047374;28;20114;-69
2021/01/10 07:36:49;;;;;;;56.15;28.98;;;;;;;2.91;66.86;100739.25;5048382;28;20045;-74
2021/01/10 07:39:17;;;;;;;66.28;38.72;;;;;;;2.86;66.80;100739.44;5045719;28;20063;-73
2021/01/10 07:41:44;;;;;;;56.53;26.92;;;;;;;2.85;67.02;100735.09;5046096;28;20055;-72
2021/01/10 07:44:11;;;;;;;47.97;27.05;;;;;;;2.87;66.91;100733.28;5048443;28;20045;-75
2021/01/10 07:47:02;;;;;;;56.25;27.67;;;;;;;2.99;67.04;100739.00;5048309;28;20045;-70
2021/01/10 07:49:32;;;;;;;63.70;29.23;;;;;;;3.04;66.57;100727.53;5046213;28;20073;-69
2021/01/10 07:51:59;;;;;;;55.67;27.52;;;;;;;3.03;66.70;100727.59;5046063;28;20060;-71
2021/01/10 07:54:52;;;;;;;62.10;28.20;;;;;;;3.09;66.86;100731.75;5045833;28;20118;-76
2021/01/10 07:57:33;;;;;;;60.38;25.45;;;;;;;3.20;66.55;100740.03;5045641;28;20049;-71
2021/01/10 08:00:16;;;;;;;62.92;33.67;;;;;;;3.16;66.23;100748.91;5046440;28;20060;-70
2021/01/10 08:02:55;;;;;;;75.32;33.95;;;;;;;3.08;66.63;100741.34;5043620;28;20176;-63
2021/01/10 08:05:24;;;;;;;72.07;32.58;;;;;;;3.06;66.41;100743.13;5041353;28;20213;-65
2021/01/10 08:07:53;;;;;;;64.95;27.77;;;;;;;3.08;66.45;100751.78;5044577;28;20136;-69
2021/01/10 08:10:21;;;;;;;63.40;27.95;;;;;;;3.15;66.48;100753.28;5043049;28;20135;-69
2021/01/10 08:12:48;;;;;;;67.07;30.85;;;;;;;3.23;66.42;100760.84;5045687;28;20057;-69
2021/01/10 08:15:17;;;;;;;63.80;29.92;;;;;;;3.24;66.40;100763.41;5043812;28;20393;-66
2021/01/10 08:17:44;;;;;;;77.05;34.38;;;;;;;3.23;66.22;100772.13;5044508;28;20044;-70
2021/01/10 08:20:12;;;;;;;67.25;32.47;;;;;;;3.05;66.40;100770.13;5045489;28;20045;-71
2021/01/10 08:22:40;;;;;;;71.80;35.58;;;;;;;3.06;66.25;100764.88;5045392;28;20456;-72
2021/01/10 08:25:19;;;;;;;55.83;31.33;;;;;;;3.06;66.51;100770.09;5044136;28;20041;-75
2021/01/10 08:27:46;;;;;;;49.80;26.20;;;;;;;3.12;66.37;100771.63;5046229;28;20057;-74
2021/01/10 08:30:15;;;;;;;50.35;25.27;;;;;;;3.17;66.32;100771.47;5044008;28;20056;-73
2021/01/10 08:32:41;;;;;;;54.65;28.10;;;;;;;3.11;66.25;100772.53;5042248;28;20055;-73
2021/01/10 08:35:10;;;;;;;66.20;33.60;;;;;;;3.14;66.43;100768.97;5044088;28;20045;-71
2021/01/10 08:37:37;;;;;;;51.90;24.15;;;;;;;3.17;66.23;100781.91;5043880;28;20055;-72
2021/01/10 08:40:09;;;;;;;50.55;27.38;;;;;;;3.28;66.23;100773.72;5043627;28;20052;-73
2021/01/10 08:42:36;;;;;;;59.28;25.38;;;;;;;3.31;66.08;100777.06;5048184;28;20045;-76
2021/01/10 08:45:21;;;;;;;57.83;26.27;;;;;;;3.40;66.17;100775.91;5045380;28;20044;-74
2021/01/10 08:47:50;;;;;;;55.73;29.53;;;;;;;3.39;65.70;100779.44;5030717;28;20045;-74
2021/01/10 08:50:17;;;;;;;65.80;31.02;;;;;;;3.31;65.81;100784.06;5047110;28;20132;-77
2021/01/10 08:52:54;;;;;;;58.25;28.45;;;;;;;3.35;65.98;100785.66;5051008;28;20055;-73
2021/01/10 08:55:55;;;;;;;64.45;30.13;;;;;;;3.40;66.04;100786.34;5051674;28;20064;-75
2021/01/10 08:58:22;;;;;;;49.50;25.08;;;;;;;3.37;65.62;100783.88;5033796;28;21437;-79
2021/01/10 09:00:52;;;;;;;51.03;26.67;;;;;;;3.46;65.88;100788.78;5033556;28;20152;-77
2021/01/10 09:03:20;;;;;;;70.85;35.38;;;;;;;3.47;65.61;100795.69;5033016;28;20050;-76
2021/01/10 09:05:50;;;;;;;57.53;29.73;;;;;;;3.56;65.54;100790.13;5040979;28;20060;-79
2021/01/10 09:08:24;;;;;;;65.00;33.85;;;;;;;3.54;65.50;100796.34;5028755;28;20176;-71
2021/01/10 09:11:04;;;;;;;63.20;27.92;;;;;;;3.43;65.72;100796.72;5025289;28;20049;-72
2021/01/10 09:13:33;;;;;;;65.60;31.63;;;;;;;3.42;65.74;100797.59;5027518;28;20046;-77
2021/01/10 09:16:03;;;;;;;62.80;30.50;;;;;;;3.36;65.63;100795.22;5027039;28;20136;-73
2021/01/10 09:18:32;;;;;;;57.35;28.08;;;;;;;3.46;65.75;100804.44;5024618;28;20045;-74
2021/01/10 09:21:07;;;;;;;75.53;41.10;;;;;;;3.53;65.39;100803.34;5034864;28;20049;-77
2021/01/10 09:23:34;;;;;;;63.45;32.50;;;;;;;3.41;65.34;100806.34;5053563;28;20534;-70
2021/01/10 09:26:26;;;;;;;88.35;39.10;;;;;;;3.45;65.71;100802.72;5059909;28;20032;-74
2021/01/10 09:29:19;;;;;;;65.43;36.80;;;;;;;3.47;65.26;100811.34;5054875;28;20053;-75
2021/01/10 09:31:47;;;;;;;61.75;28.45;;;;;;;3.41;65.31;100801.97;5054578;28;20049;-75
2021/01/10 09:34:25;;;;;;;54.65;26.75;;;;;;;3.38;65.36;100806.44;5051230;28;20098;-73
2021/01/10 09:37:04;;;;;;;67.72;32.10;;;;;;;3.44;65.27;100807.09;5049787;28;20049;-74
2021/01/10 09:39:41;;;;;;;74.53;41.67;;;;;;;3.34;65.27;100797.03;5046247;28;20060;-70
2021/01/10 09:42:10;;;;;;;80.95;44.05;;;;;;;3.28;65.48;100805.03;5043976;28;20045;-70
2021/01/10 09:44:37;;;;;;;67.57;32.13;;;;;;;3.27;65.56;100796.38;5047717;28;20080;-71
2021/01/10 09:47:05;;;;;;;76.40;36.90;;;;;;;3.33;65.57;100796.19;5043323;28;20045;-71
2021/01/10 09:49:33;;;;;;;74.18;37.03;;;;;;;3.45;65.39;100797.50;5041585;28;20049;-76
2021/01/10 09:52:02;;;;;;;71.55;35.50;;;;;;;3.42;65.07;100793.25;5042207;28;20052;-77
2021/01/10 09:54:30;;;;;;;62.65;30.10;;;;;;;3.56;64.92;100792.75;5044049;28;20096;-72
2021/01/10 09:56:57;;;;;;;64.78;29.35;;;;;;;3.70;64.73;100796.66;5043735;28;20052;-73
2021/01/10 09:59:41;;;;;;;69.85;38.95;;;;;;;3.55;64.79;100804.13;5043356;28;20413;-73
2021/01/10 10:02:19;;;;;;;81.45;42.50;;;;;;;3.38;65.07;100798.63;5041089;28;20108;-72
2021/01/10 10:04:48;;;;;;;68.30;28.65;;;;;;;3.46;65.06;100791.38;5041069;28;20064;-77
2021/01/10 10:07:28;;;;;;;75.97;38.03;;;;;;;3.56;64.90;100800.59;5045397;28;20053;-71
2021/01/10 10:09:55;;;;;;;67.95;33.80;;;;;;;3.61;64.58;100793.44;5052026;28;20122;-73
2021/01/10 10:12:23;;;;;;;58.00;25.40;;;;;;;3.73;64.71;100796.56;5049548;28;20041;-71
2021/01/10 10:14:55;;;;;;;70.78;32.72;;;;;;;3.87;64.32;100794.31;5054556;28;20045;-73
2021/01/10 10:17:26;;;;;;;69.10;32.45;;;;;;;3.85;64.40;100784.81;5052362;28;20125;-74
2021/01/10 10:19:53;;;;;;;60.92;29.50;;;;;;;3.86;64.32;100792.59;5045195;28;20103;-73
2021/01/10 10:22:25;;;;;;;74.70;40.03;;;;;;;3.81;64.19;100795.34;5045524;28;20049;-70
2021/01/10 10:24:52;;;;;;;72.90;33.33;;;;;;;3.75;64.21;100795.59;5042914;28;20049;-74
2021/01/10 10:27:19;;;;;;;55.42;24.30;;;;;;;3.87;64.27;100804.75;5043954;28;20459;-73
2021/01/10 10:29:46;;;;;;;58.97;31.45;;;;;;;4.04;63.79;100790.22;5046308;28;20048;-77
2021/01/10 10:32:13;;;;;;;59.45;29.10;;;;;;;4.08;63.60;100790.03;5041566;28;20049;-70
2021/01/10 10:34:39;;;;;;;70.35;32.65;;;;;;;4.15;63.75;100788.06;5042042;28;20053;-73
2021/01/10 10:37:07;;;;;;;58.67;27.42;;;;;;;4.23;63.67;100791.22;5042949;28;20049;-73
2021/01/10 10:39:34;;;;;;;56.13;28.27;;;;;;;4.31;63.41;100783.97;5040178;28;20049;-76
2021/01/10 10:42:01;;;;;;;68.93;28.67;;;;;;;4.35;63.52;100788.16;5039627;28;20049;-70
2021/01/10 10:44:27;;;;;;;72.38;33.00;;;;;;;4.21;63.13;100783.47;5042165;28;20049;-70
2021/01/10 10:46:54;;;;;;;57.10;25.30;;;;;;;4.26;63.44;100775.44;5041941;28;20056;-79
2021/01/10 10:49:22;;;;;;;60.55;26.33;;;;;;;4.35;63.14;100780.31;5040268;28;20053;-76
2021/01/10 10:51:48;;;;;;;78.53;40.10;;;;;;;4.35;62.89;100782.91;5039734;28;20063;-70
2021/01/10 10:54:15;;;;;;;70.45;35.47;;;;;;;4.34;62.94;100783.84;5021531;28;20049;-73
2021/01/10 10:56:42;;;;;;;65.03;32.67;;;;;;;4.42;62.99;100774.84;5042789;28;20040;-71
2021/01/10 10:59:09;;;;;;;65.38;32.10;;;;;;;4.46;62.91;100784.28;5039160;28;20084;-72
2021/01/10 11:01:41;;;;;;;53.60;26.05;;;;;;;4.51;63.11;100771.88;5041112;28;20053;-73
2021/01/10 11:04:07;;;;;;;61.42;31.70;;;;;;;4.52;62.89;100766.59;5042024;28;20049;-74
2021/01/10 11:06:36;;;;;;;61.42;29.95;;;;;;;4.52;62.91;100763.97;5038681;28;20084;-73
2021/01/10 11:09:03;;;;;;;54.17;32.03;;;;;;;4.58;62.58;100768.13;5039910;28;20124;-73
2021/01/10 11:11:37;;;;;;;60.45;30.52;;;;;;;4.46;62.43;100761.59;5038844;28;20048;-74
2021/01/10 11:14:06;;;;;;;64.70;33.60;;;;;;;4.25;62.41;100763.28;5039188;28;20563;-74
2021/01/10 11:16:33;;;;;;;67.38;30.77;;;;;;;4.28;62.60;100763.13;5042205;28;20113;-74
2021/01/10 11:19:00;;;;;;;53.40;23.95;;;;;;;4.43;62.52;100759.09;5044946;28;20049;-71
2021/01/10 11:21:28;;;;;;;57.45;24.33;;;;;;;4.55;62.13;100752.53;5039045;28;20041;-69
2021/01/10 11:23:59;;;;;;;49.47;25.58;;;;;;;4.68;62.12;100761.63;5038449;28;20056;-75
2021/01/10 11:26:26;;;;;;;52.15;28.05;;;;;;;4.58;61.85;100768.97;5039019;28;20052;-70
2021/01/10 11:28:55;;;;;;;50.92;29.25;;;;;;;4.47;61.79;100757.22;5037125;28;20719;-75